createdAt,value
2018-04-11T00:01:13.637Z,24.90
2018-04-11T00:03:41.898Z,23.38
2018-04-11T00:06:10.189Z,22.18
2018-04-11T00:08:38.453Z,22.52
2018-04-11T00:11:06.758Z,23.96
2018-04-11T00:13:35.049Z,20.96
2018-04-11T00:16:03.330Z,23.18
2018-04-11T00:18:31.634Z,21.58
2018-04-11T00:21:01.154Z,21.98
2018-04-11T00:23:30.659Z,22.56
2018-04-11T00:25:59.911Z,23.58
2018-04-11T00:28:28.170Z,21.76
2018-04-11T00:30:56.454Z,24.56
2018-04-11T00:33:25.682Z,24.32
2018-04-11T00:35:53.958Z,22.78
2018-04-11T00:38:22.221Z,23.20
2018-04-11T00:40:50.527Z,20.82
2018-04-11T00:43:19.826Z,20.92
2018-04-11T00:45:48.087Z,22.70
2018-04-11T00:48:16.354Z,22.64
2018-04-11T00:50:44.658Z,22.32
2018-04-11T00:53:24.697Z,23.22
2018-04-11T00:55:52.990Z,22.48
2018-04-11T00:58:21.255Z,22.66
2018-04-11T01:00:49.578Z,23.34
2018-04-11T01:03:18.773Z,20.40
2018-04-11T01:05:47.044Z,22.44
2018-04-11T01:08:15.329Z,21.28
2018-04-11T01:10:43.599Z,21.86
2018-04-11T01:13:12.463Z,22.30
2018-04-11T01:15:40.717Z,24.58
2018-04-11T01:18:08.997Z,24.46
2018-04-11T01:20:37.295Z,21.66
2018-04-11T01:23:05.573Z,22.78
2018-04-11T01:25:33.851Z,22.02
2018-04-11T01:28:02.159Z,24.00
2018-04-11T01:30:31.628Z,24.76
2018-04-11T01:33:00.441Z,26.02
2018-04-11T01:35:29.170Z,24.86
2018-04-11T01:37:57.434Z,24.82
2018-04-11T01:40:25.729Z,26.04
2018-04-11T01:42:54.945Z,27.42
2018-04-11T01:45:23.242Z,26.28
2018-04-11T01:47:51.509Z,26.42
2018-04-11T01:50:19.811Z,28.20
2018-04-11T01:52:47.313Z,30.00
2018-04-11T01:55:15.589Z,27.16
2018-04-11T01:57:43.901Z,25.30
2018-04-11T02:00:12.169Z,25.72
2018-04-11T02:02:40.463Z,25.88
2018-04-11T02:05:08.725Z,24.80
2018-04-11T02:07:37.000Z,27.12
2018-04-11T02:10:05.289Z,27.28
2018-04-11T02:12:33.942Z,27.38
2018-04-11T02:15:02.238Z,27.90
2018-04-11T02:17:32.677Z,29.36
2018-04-11T02:20:00.943Z,27.26
2018-04-11T02:22:31.922Z,30.30
2018-04-11T02:25:01.122Z,29.22
2018-04-11T02:27:30.458Z,27.96
2018-04-11T02:29:58.754Z,24.32
2018-04-11T02:32:27.959Z,25.20
2018-04-11T02:34:56.233Z,25.50
2018-04-11T02:37:25.397Z,24.24
2018-04-11T02:39:53.681Z,27.78
2018-04-11T02:42:21.954Z,25.74
2018-04-11T02:44:50.253Z,27.62
2018-04-11T02:47:18.536Z,27.32
2018-04-11T02:49:46.826Z,27.56
2018-04-11T02:52:15.142Z,25.30
2018-04-11T02:54:43.397Z,26.14
2018-04-11T02:57:11.662Z,25.18
2018-04-11T02:59:39.947Z,23.48
2018-04-11T03:02:08.213Z,26.76
2018-04-11T03:04:36.505Z,22.96
2018-04-11T03:07:04.783Z,22.78
2018-04-11T03:09:33.079Z,24.66
2018-04-11T03:12:07.437Z,23.90
2018-04-11T03:14:35.719Z,23.76
2018-04-11T03:17:03.997Z,23.88
2018-04-11T03:19:32.330Z,25.02
2018-04-11T03:22:02.057Z,23.72
2018-04-11T03:24:31.376Z,22.40
2018-04-11T03:27:01.125Z,20.88
2018-04-11T03:29:30.582Z,21.52
2018-04-11T03:31:58.850Z,18.44
2018-04-11T03:34:27.121Z,18.92
2018-04-11T03:36:55.409Z,17.54
2018-04-11T03:39:23.668Z,17.98
2018-04-11T03:41:51.958Z,18.72
2018-04-11T03:44:20.222Z,17.68
2018-04-11T03:46:48.521Z,18.56
2018-04-11T03:49:16.794Z,17.90
2018-04-11T03:51:45.094Z,16.12
2018-04-11T03:54:13.391Z,16.16
2018-04-11T03:56:41.687Z,19.00
2018-04-11T03:59:11.134Z,16.18
2018-04-11T04:01:39.894Z,15.64
2018-04-11T04:04:08.169Z,16.22
2018-04-11T04:06:36.523Z,13.38
2018-04-11T04:09:05.498Z,14.12
2018-04-11T04:11:33.756Z,13.72
2018-04-11T04:14:17.237Z,13.76
2018-04-11T04:16:57.377Z,12.84
2018-04-11T04:19:37.521Z,14.20
2018-04-11T04:22:05.778Z,12.78
2018-04-11T04:24:34.101Z,12.60
2018-04-11T04:27:02.371Z,11.82
2018-04-11T04:29:31.438Z,13.86
2018-04-11T04:32:00.762Z,13.46
2018-04-11T04:34:29.063Z,11.20
2018-04-11T04:36:57.339Z,13.92
2018-04-11T04:39:25.622Z,12.90
2018-04-11T04:41:53.882Z,12.98
2018-04-11T04:44:22.184Z,12.48
2018-04-11T04:46:49.709Z,13.48
2018-04-11T04:49:18.002Z,14.06
2018-04-11T04:51:45.501Z,14.50
2018-04-11T04:54:13.793Z,12.76
2018-04-11T04:56:42.090Z,13.28
2018-04-11T04:59:10.348Z,13.74
2018-04-11T05:01:38.639Z,14.90
2018-04-11T05:04:06.929Z,13.32
2018-04-11T05:06:35.208Z,14.06
2018-04-11T05:09:03.520Z,14.14
2018-04-11T05:11:31.802Z,15.20
2018-04-11T05:14:01.262Z,14.50
2018-04-11T05:16:29.539Z,13.60
2018-04-11T05:18:57.801Z,12.86
2018-04-11T05:21:26.093Z,14.38
2018-04-11T05:23:54.361Z,13.86
2018-04-11T05:26:22.653Z,12.90
2018-04-11T05:28:50.141Z,12.94
2018-04-11T05:31:18.426Z,13.44
2018-04-11T05:33:46.695Z,13.96
2018-04-11T05:36:14.996Z,13.28
2018-04-11T05:38:43.254Z,12.58
2018-04-11T05:41:11.534Z,12.82
2018-04-11T05:43:39.793Z,13.74
2018-04-11T05:46:08.090Z,12.88
2018-04-11T05:48:36.353Z,13.40
2018-04-11T05:51:04.655Z,14.06
2018-04-11T05:53:33.918Z,14.14
2018-04-11T05:56:02.215Z,15.04
2018-04-11T05:58:31.174Z,15.28
2018-04-11T06:01:00.324Z,13.28
2018-04-11T06:03:29.609Z,14.46
2018-04-11T06:05:57.938Z,15.70
2018-04-11T06:08:26.175Z,15.12
2018-04-11T06:10:54.462Z,15.42
2018-04-11T06:13:22.746Z,14.88
2018-04-11T06:15:51.001Z,15.36
2018-04-11T06:18:19.300Z,15.74
2018-04-11T06:20:47.594Z,15.30
2018-04-11T06:23:15.865Z,14.24
2018-04-11T06:25:44.158Z,15.50
2018-04-11T06:28:12.421Z,15.18
2018-04-11T06:30:40.752Z,15.50
2018-04-11T06:33:09.037Z,15.64
2018-04-11T06:35:37.307Z,16.56
2018-04-11T06:38:05.605Z,14.90
2018-04-11T06:40:33.890Z,15.04
2018-04-11T06:43:03.201Z,15.06
2018-04-11T06:45:31.497Z,15.80
2018-04-11T06:48:00.461Z,16.50
2018-04-11T06:50:28.758Z,17.84
2018-04-11T06:52:57.026Z,17.88
2018-04-11T06:55:25.289Z,17.04
2018-04-11T06:57:55.577Z,17.46
2018-04-11T07:00:23.841Z,17.40
2018-04-11T07:02:52.131Z,17.62
2018-04-11T07:05:20.406Z,15.94
2018-04-11T07:07:48.709Z,17.44
2018-04-11T07:10:17.005Z,15.38
2018-04-11T07:12:45.317Z,16.62
2018-04-11T07:15:13.578Z,16.22
2018-04-11T07:17:42.760Z,18.08
2018-04-11T07:20:12.018Z,16.22
2018-04-11T07:22:40.836Z,17.00
2018-04-11T07:25:09.125Z,17.06
2018-04-11T07:27:37.386Z,18.08
2018-04-11T07:30:05.687Z,16.86
2018-04-11T07:32:33.949Z,17.86
2018-04-11T07:35:02.219Z,18.60
2018-04-11T07:37:30.531Z,17.54
2018-04-11T07:40:01.190Z,20.00
2018-04-11T07:42:30.222Z,19.60
2018-04-11T07:44:58.548Z,20.06
2018-04-11T07:47:26.821Z,19.72
2018-04-11T07:49:55.084Z,22.40
2018-04-11T07:52:23.387Z,24.18
2018-04-11T07:54:51.645Z,26.70
2018-04-11T07:57:19.940Z,34.48
2018-04-11T07:59:48.210Z,31.20
2018-04-11T08:02:16.507Z,34.28
2018-04-11T08:04:44.778Z,36.48
2018-04-11T08:07:13.091Z,34.26
2018-04-11T08:09:41.358Z,35.42
2018-04-11T08:12:09.634Z,33.00
2018-04-11T08:14:37.937Z,33.86
2018-04-11T08:17:06.202Z,34.58
2018-04-11T08:19:34.489Z,32.18
2018-04-11T08:22:02.791Z,33.24
2018-04-11T08:24:31.821Z,29.60
2018-04-11T08:27:01.270Z,31.50
2018-04-11T08:29:29.565Z,30.40
2018-04-11T08:31:57.861Z,33.00
2018-04-11T08:34:26.131Z,35.32
2018-04-11T08:36:54.427Z,33.16
2018-04-11T08:39:22.720Z,33.56
2018-04-11T08:41:50.995Z,34.58
2018-04-11T08:44:19.293Z,34.34
2018-04-11T08:46:47.557Z,34.54
2018-04-11T08:49:15.858Z,34.20
2018-04-11T08:51:44.118Z,35.62
2018-04-11T08:54:12.410Z,37.64
2018-04-11T08:56:40.669Z,38.02
2018-04-11T08:59:08.978Z,37.18
2018-04-11T09:01:37.267Z,38.14
2018-04-11T09:04:05.539Z,40.72
2018-04-11T09:06:33.838Z,39.54
2018-04-11T09:09:03.336Z,40.44
2018-04-11T09:11:32.589Z,39.92
2018-04-11T09:14:03.325Z,40.58
2018-04-11T09:16:32.510Z,41.04
2018-04-11T09:19:01.912Z,39.86
2018-04-11T09:21:31.357Z,40.80
2018-04-11T09:24:01.288Z,44.88
2018-04-11T09:26:29.603Z,44.52
2018-04-11T09:28:57.875Z,44.74
2018-04-11T09:31:26.134Z,43.88
2018-04-11T09:33:54.424Z,44.30
2018-04-11T09:36:22.685Z,43.66
2018-04-11T09:38:50.973Z,44.90
2018-04-11T09:41:19.231Z,49.12
2018-04-11T09:43:47.525Z,49.48
2018-04-11T09:46:15.784Z,49.32
2018-04-11T09:48:44.081Z,45.72
2018-04-11T09:51:12.336Z,49.90
2018-04-11T09:53:40.646Z,49.32
2018-04-11T09:56:08.928Z,48.08
2018-04-11T09:58:37.197Z,51.22
2018-04-11T10:01:05.488Z,48.48
2018-04-11T10:03:33.761Z,49.78
2018-04-11T10:06:02.064Z,51.50
2018-04-11T10:08:32.354Z,54.58
2018-04-11T10:11:01.450Z,51.06
2018-04-11T10:13:31.938Z,54.82
2018-04-11T10:16:02.401Z,51.66
2018-04-11T10:18:32.853Z,56.48
2018-04-11T10:21:02.910Z,55.62
2018-04-11T10:23:33.062Z,53.88
2018-04-11T10:26:03.309Z,54.36
2018-04-11T10:28:32.233Z,56.90
2018-04-11T10:31:00.913Z,55.68
2018-04-11T10:33:30.412Z,52.56
2018-04-11T10:35:58.713Z,59.36
2018-04-11T10:38:26.985Z,53.82
2018-04-11T10:40:55.241Z,54.70
2018-04-11T10:43:24.533Z,57.10
2018-04-11T10:45:52.796Z,57.34
2018-04-11T10:48:21.088Z,58.84
2018-04-11T10:50:49.350Z,56.36
2018-04-11T10:53:18.665Z,62.06
2018-04-11T10:55:46.939Z,62.18
2018-04-11T10:58:15.257Z,61.16
2018-04-11T11:00:43.528Z,58.08
2018-04-11T11:03:12.375Z,64.22
2018-04-11T11:05:40.646Z,60.08
2018-04-11T11:08:08.947Z,61.44
2018-04-11T11:10:37.208Z,65.06
2018-04-11T11:13:05.526Z,63.60
2018-04-11T11:15:33.811Z,63.70
2018-04-11T11:18:02.939Z,58.62
2018-04-11T11:20:33.125Z,58.96
2018-04-11T11:23:02.948Z,62.38
2018-04-11T11:25:33.416Z,63.74
2018-04-11T11:28:03.262Z,58.92
2018-04-11T11:30:31.994Z,63.64
2018-04-11T11:33:02.056Z,62.46
2018-04-11T11:35:32.099Z,61.36
2018-04-11T11:38:00.409Z,61.28
2018-04-11T11:40:28.716Z,63.56
2018-04-11T11:42:59.005Z,65.32
2018-04-11T11:45:27.282Z,65.26
2018-04-11T11:47:55.582Z,63.54
2018-04-11T11:50:23.854Z,64.44
2018-04-11T11:52:52.151Z,70.08
2018-04-11T11:55:20.415Z,62.58
2018-04-11T11:57:48.728Z,62.26
2018-04-11T12:00:17.002Z,59.68
2018-04-11T12:02:45.302Z,60.76
2018-04-11T12:05:13.581Z,64.14
2018-04-11T12:07:41.899Z,59.28
2018-04-11T12:10:10.200Z,64.86
2018-04-11T12:12:38.464Z,64.40
2018-04-11T12:15:06.753Z,62.46
2018-04-11T12:17:35.030Z,62.70
2018-04-11T12:20:04.529Z,58.22
2018-04-11T12:22:34.185Z,53.92
2018-04-11T12:25:03.686Z,53.56
2018-04-11T12:27:32.003Z,51.86
2018-04-11T12:30:01.161Z,54.68
2018-04-11T12:32:30.146Z,49.70
2018-04-11T12:34:58.413Z,53.06
2018-04-11T12:37:26.733Z,50.40
2018-04-11T12:39:55.018Z,44.30
2018-04-11T12:42:23.294Z,45.22
2018-04-11T12:44:51.598Z,45.56
2018-04-11T12:47:19.865Z,43.50
2018-04-11T12:49:48.174Z,42.94
2018-04-11T12:52:16.484Z,44.98
2018-04-11T12:54:44.785Z,42.52
2018-04-11T12:57:13.044Z,43.46
2018-04-11T12:59:41.343Z,40.98
2018-04-11T13:02:10.542Z,41.84
2018-04-11T13:04:38.851Z,39.46
2018-04-11T13:07:07.110Z,40.42
2018-04-11T13:09:35.372Z,37.42
2018-04-11T13:12:04.601Z,34.86
2018-04-11T13:14:32.870Z,34.56
2018-04-11T13:17:03.306Z,33.58
2018-04-11T13:19:32.475Z,32.10
2018-04-11T13:22:02.338Z,33.96
2018-04-11T13:24:30.943Z,30.32
2018-04-11T13:27:00.475Z,30.00
2018-04-11T13:29:28.769Z,31.76
2018-04-11T13:31:57.063Z,31.04
2018-04-11T13:34:25.366Z,31.60
2018-04-11T13:36:53.660Z,30.84
2018-04-11T13:39:21.929Z,29.78
2018-04-11T13:41:50.225Z,32.78
2018-04-11T13:44:18.502Z,30.36
2018-04-11T13:46:46.810Z,31.64
2018-04-11T13:49:15.081Z,32.96
2018-04-11T13:51:43.346Z,32.66
2018-04-11T13:54:11.642Z,34.32
2018-04-11T13:56:39.904Z,36.26
2018-04-11T13:59:08.189Z,35.42
2018-04-11T14:01:36.450Z,31.38
2018-04-11T14:04:04.770Z,33.70
2018-04-11T14:06:33.073Z,32.02
2018-04-11T14:09:02.654Z,32.48
2018-04-11T14:11:32.786Z,30.54
2018-04-11T14:14:02.736Z,26.76
2018-04-11T14:16:33.368Z,28.40
2018-04-11T14:19:01.654Z,27.40
2018-04-11T14:21:31.340Z,26.82
2018-04-11T14:24:00.742Z,31.70
2018-04-11T14:26:29.044Z,35.80
2018-04-11T14:28:57.378Z,31.62
2018-04-11T14:31:25.613Z,29.26
2018-04-11T14:33:53.915Z,34.10
2018-04-11T14:36:22.178Z,31.78
2018-04-11T14:38:50.478Z,30.32
2018-04-11T14:41:18.741Z,30.76
2018-04-11T14:43:47.006Z,34.02
2018-04-11T14:46:15.303Z,34.26
2018-04-11T14:48:43.570Z,34.16
2018-04-11T14:51:11.865Z,36.70
2018-04-11T14:53:43.709Z,34.44
2018-04-11T14:56:12.009Z,35.90
2018-04-11T14:58:40.282Z,35.78
2018-04-11T15:01:07.802Z,35.68
2018-04-11T15:03:36.989Z,34.94
2018-04-11T15:06:05.260Z,34.42
2018-04-11T15:08:34.453Z,33.06
2018-04-11T15:11:03.370Z,34.52
2018-04-11T15:13:33.676Z,34.50
2018-04-11T15:16:01.958Z,31.12
2018-04-11T15:18:31.150Z,30.74
2018-04-11T15:21:00.030Z,29.16
2018-04-11T15:23:28.325Z,31.28
2018-04-11T15:25:56.734Z,28.92
2018-04-11T15:28:25.950Z,28.94
2018-04-11T15:30:54.214Z,30.64
2018-04-11T15:33:29.632Z,31.34
2018-04-11T15:35:57.905Z,30.60
2018-04-11T15:38:26.198Z,30.34
2018-04-11T15:40:53.754Z,31.30
2018-04-11T15:43:22.028Z,31.16
2018-04-11T15:45:50.293Z,31.56
2018-04-11T15:48:18.598Z,30.36
2018-04-11T15:50:47.928Z,30.76
2018-04-11T15:53:16.133Z,31.92
2018-04-11T15:55:44.429Z,31.30
2018-04-11T15:58:12.709Z,31.22
2018-04-11T16:00:42.010Z,32.60
2018-04-11T16:03:10.314Z,33.42
2018-04-11T16:05:39.589Z,35.74
2018-04-11T16:08:07.849Z,31.58
2018-04-11T16:10:39.298Z,33.18
2018-04-11T16:13:07.576Z,33.50
2018-04-11T16:15:35.877Z,35.24
2018-04-11T16:18:04.714Z,33.62
2018-04-11T16:20:34.055Z,30.28
2018-04-11T16:23:02.353Z,27.56
2018-04-11T16:25:31.362Z,29.04
2018-04-11T16:28:00.269Z,30.84
2018-04-11T16:30:30.500Z,26.44
2018-04-11T16:32:58.772Z,24.66
2018-04-11T16:35:31.503Z,23.82
2018-04-11T16:38:00.819Z,22.60
2018-04-11T16:40:31.118Z,22.04
2018-04-11T16:43:00.076Z,21.56
2018-04-11T16:45:30.106Z,23.26
2018-04-11T16:47:58.417Z,24.42
2018-04-11T16:50:27.617Z,23.40
2018-04-11T16:52:55.926Z,19.98
2018-04-11T16:55:24.277Z,22.42
2018-04-11T16:57:52.541Z,20.40
2018-04-11T17:00:20.085Z,21.62
2018-04-11T17:02:48.422Z,20.46
2018-04-11T17:05:16.723Z,21.58
2018-04-11T17:07:45.050Z,21.44
2018-04-11T17:10:13.323Z,19.18
2018-04-11T17:12:41.597Z,21.36
2018-04-11T17:15:09.903Z,19.38
2018-04-11T17:17:38.178Z,18.46
2018-04-11T17:20:06.476Z,20.42
2018-04-11T17:22:47.359Z,19.10
2018-04-11T17:25:29.953Z,18.08
2018-04-11T17:28:09.301Z,18.28
2018-04-11T17:30:49.357Z,18.44
2018-04-11T17:33:17.665Z,20.16
2018-04-11T17:35:45.929Z,18.88
2018-04-11T17:38:14.210Z,17.72
2018-04-11T17:40:41.770Z,18.54
2018-04-11T17:43:10.056Z,17.58
2018-04-11T17:45:38.373Z,20.58
2018-04-11T17:48:06.632Z,26.26
2018-04-11T17:50:35.681Z,27.36
2018-04-11T17:53:04.789Z,28.50
2018-04-11T17:55:33.068Z,31.08
2018-04-11T17:58:01.993Z,31.34
2018-04-11T18:00:30.956Z,30.48
2018-04-11T18:03:00.204Z,30.98
2018-04-11T18:05:29.956Z,31.46
2018-04-11T18:07:58.263Z,30.92
2018-04-11T18:10:26.539Z,31.52
2018-04-11T18:12:54.882Z,31.40
2018-04-11T18:15:23.186Z,31.38
2018-04-11T18:17:51.498Z,34.36
2018-04-11T18:20:19.803Z,32.92
2018-04-11T18:22:48.093Z,33.58
2018-04-11T18:25:16.379Z,32.82
2018-04-11T18:27:44.695Z,33.30
2018-04-11T18:30:12.958Z,32.74
2018-04-11T18:32:41.274Z,32.80
2018-04-11T18:35:09.561Z,35.28
2018-04-11T18:37:37.862Z,34.20
2018-04-11T18:40:06.129Z,32.02
2018-04-11T18:42:34.428Z,36.90
2018-04-11T18:45:02.703Z,33.40
2018-04-11T18:47:32.065Z,32.46
2018-04-11T18:50:00.734Z,31.76
2018-04-11T18:52:29.038Z,33.02
2018-04-11T18:54:57.334Z,33.68
2018-04-11T18:57:25.632Z,32.84
2018-04-11T18:59:53.889Z,36.56
2018-04-11T19:02:22.205Z,35.46
2018-04-11T19:04:52.463Z,32.88
2018-04-11T19:07:20.813Z,32.92
2018-04-11T19:09:49.078Z,31.64
2018-04-11T19:12:17.884Z,32.40
2018-04-11T19:14:46.177Z,33.30
2018-04-11T19:17:14.457Z,35.08
2018-04-11T19:19:42.762Z,32.42
2018-04-11T19:22:11.073Z,33.36
2018-04-11T19:24:39.370Z,34.64
2018-04-11T19:27:07.311Z,35.04
2018-04-11T19:29:36.598Z,33.64
2018-04-11T19:32:04.926Z,32.20
2018-04-11T19:34:33.203Z,32.50
2018-04-11T19:37:01.477Z,32.14
2018-04-11T19:39:30.456Z,33.86
2018-04-11T19:41:58.733Z,33.98
2018-04-11T19:44:27.096Z,30.26
2018-04-11T19:46:55.342Z,31.84
2018-04-11T19:49:23.619Z,30.92
2018-04-11T19:51:51.925Z,33.12
2018-04-11T19:54:20.189Z,32.70
2018-04-11T19:56:47.754Z,32.74
2018-04-11T19:59:16.040Z,30.10
2018-04-11T20:01:44.301Z,35.16
2018-04-11T20:04:12.593Z,32.14
2018-04-11T20:06:41.813Z,33.24
2018-04-11T20:09:10.110Z,32.50
2018-04-11T20:11:38.384Z,30.86
2018-04-11T20:14:07.097Z,31.84
2018-04-11T20:16:35.920Z,33.08
2018-04-11T20:19:03.426Z,32.06
2018-04-11T20:21:31.726Z,34.26
2018-04-11T20:24:00.796Z,37.00
2018-04-11T20:26:29.090Z,35.70
2018-04-11T20:28:57.395Z,32.36
2018-04-11T20:31:25.676Z,24.80
2018-04-11T20:33:53.950Z,25.44
2018-04-11T20:36:22.264Z,25.90
2018-04-11T20:38:50.540Z,26.90
2018-04-11T20:41:18.804Z,27.12
2018-04-11T20:43:47.271Z,27.92
2018-04-11T20:46:15.624Z,30.60
2018-04-11T20:48:43.943Z,28.98
2018-04-11T20:51:12.205Z,29.96
2018-04-11T20:53:40.474Z,27.06
2018-04-11T20:56:08.000Z,27.74
2018-04-11T20:58:36.265Z,28.82
2018-04-11T21:01:04.609Z,30.42
2018-04-11T21:03:32.897Z,29.12
2018-04-11T21:06:00.460Z,31.32
2018-04-11T21:08:28.731Z,29.44
2018-04-11T21:10:57.000Z,32.24
2018-04-11T21:13:25.264Z,32.56
2018-04-11T21:15:54.503Z,29.38
2018-04-11T21:18:22.766Z,31.44
2018-04-11T21:20:51.047Z,31.56
2018-04-11T21:23:19.346Z,32.02
2018-04-11T21:25:47.654Z,31.84
2018-04-11T21:28:15.948Z,31.20
2018-04-11T21:30:44.240Z,29.96
2018-04-11T21:33:12.938Z,30.24
2018-04-11T21:35:41.223Z,25.80
2018-04-11T21:38:09.534Z,25.86
2018-04-11T21:40:37.829Z,26.06
2018-04-11T21:43:05.338Z,26.32
2018-04-11T21:45:33.637Z,25.74
2018-04-11T21:48:01.911Z,24.68
2018-04-11T21:50:30.163Z,24.54
2018-04-11T21:52:58.441Z,27.26
2018-04-11T21:55:26.743Z,26.04
2018-04-11T21:57:55.007Z,25.92
2018-04-11T22:00:23.301Z,27.90
2018-04-11T22:02:51.592Z,28.54
2018-04-11T22:05:19.857Z,27.38
2018-04-11T22:07:48.149Z,29.66
2018-04-11T22:10:16.424Z,25.36
2018-04-11T22:12:45.653Z,26.84
2018-04-11T22:15:13.932Z,23.60
2018-04-11T22:17:42.233Z,24.36
2018-04-11T22:20:10.497Z,24.06
2018-04-11T22:22:38.778Z,25.72
2018-04-11T22:25:07.046Z,24.50
2018-04-11T22:27:35.941Z,22.74
2018-04-11T22:30:04.237Z,23.50
2018-04-11T22:32:32.513Z,23.40
2018-04-11T22:35:02.026Z,22.38
2018-04-11T22:37:30.746Z,23.74
2018-04-11T22:39:58.260Z,24.02
2018-04-11T22:42:26.518Z,21.22
2018-04-11T22:44:54.839Z,20.94
2018-04-11T22:47:23.097Z,23.98
2018-04-11T22:49:51.362Z,22.20
2018-04-11T22:52:19.665Z,24.58
2018-04-11T22:54:47.957Z,23.48
2018-04-11T22:57:16.250Z,24.30
2018-04-11T22:59:44.533Z,22.76
2018-04-11T23:02:12.833Z,24.12
2018-04-11T23:04:41.105Z,23.16
2018-04-11T23:07:09.410Z,25.34
2018-04-11T23:09:36.958Z,26.32
2018-04-11T23:12:06.403Z,24.62
2018-04-11T23:14:35.223Z,25.54
2018-04-11T23:17:03.517Z,26.94
2018-04-11T23:19:31.823Z,27.66
2018-04-11T23:22:01.376Z,25.24
2018-04-11T23:24:30.724Z,25.38
2018-04-11T23:26:58.987Z,24.38
2018-04-11T23:29:27.295Z,26.20
2018-04-11T23:31:55.550Z,28.34
2018-04-11T23:34:23.815Z,31.36
2018-04-11T23:36:52.105Z,30.28
2018-04-11T23:39:20.382Z,30.72
2018-04-11T23:41:48.686Z,31.62
2018-04-11T23:44:16.961Z,33.12
2018-04-11T23:46:45.299Z,32.38
2018-04-11T23:49:21.874Z,31.36
2018-04-11T23:51:50.169Z,37.58
2018-04-11T23:54:18.424Z,35.66
2018-04-11T23:56:46.719Z,35.58
2018-04-11T23:59:14.245Z,35.66
